sensor_id;sensor_type;location;lat;lon;timestamp;temperature;humidity
18041;DHT22;9145;48.588;9.250;2022-07-09T00:00:09;16.30;99.90
18041;DHT22;9145;48.588;9.250;2022-07-09T00:02:36;16.40;99.90
18041;DHT22;9145;48.588;9.250;2022-07-09T00:05:04;16.40;99.90
18041;DHT22;9145;48.588;9.250;2022-07-09T00:07:31;16.40;99.90
18041;DHT22;9145;48.588;9.250;2022-07-09T00:09:59;16.50;99.90
18041;DHT22;9145;48.588;9.250;2022-07-09T00:12:25;16.50;99.90
18041;DHT22;9145;48.588;9.250;2022-07-09T00:14:52;16.50;99.90
18041;DHT22;9145;48.588;9.250;2022-07-09T00:17:19;16.40;99.90
18041;DHT22;9145;48.588;9.250;2022-07-09T00:19:46;16.40;99.90
18041;DHT22;9145;48.588;9.250;2022-07-09T00:22:13;16.30;99.90
18041;DHT22;9145;48.588;9.250;2022-07-09T00:24:40;16.30;99.90
18041;DHT22;9145;48.588;9.250;2022-07-09T00:27:08;16.10;99.90
18041;DHT22;9145;48.588;9.250;2022-07-09T00:29:35;16.10;99.90
18041;DHT22;9145;48.588;9.250;2022-07-09T00:32:02;16.10;99.90
18041;DHT22;9145;48.588;9.250;2022-07-09T00:34:29;16.20;99.90
18041;DHT22;9145;48.588;9.250;2022-07-09T00:36:56;16.20;99.90
18041;DHT22;9145;48.588;9.250;2022-07-09T00:39:23;16.10;99.90
18041;DHT22;9145;48.588;9.250;2022-07-09T00:41:49;16.00;99.90
18041;DHT22;9145;48.588;9.250;2022-07-09T00:44:18;15.80;99.90
18041;DHT22;9145;48.588;9.250;2022-07-09T00:46:44;15.60;99.90
18041;DHT22;9145;48.588;9.250;2022-07-09T00:49:11;15.60;99.90
18041;DHT22;9145;48.588;9.250;2022-07-09T00:51:38;15.70;99.90
18041;DHT22;9145;48.588;9.250;2022-07-09T00:54:06;15.70;99.90
18041;DHT22;9145;48.588;9.250;2022-07-09T00:56:33;15.70;99.90
18041;DHT22;9145;48.588;9.250;2022-07-09T00:59:00;15.70;99.90
18041;DHT22;9145;48.588;9.250;2022-07-09T01:01:29;15.50;99.90
18041;DHT22;9145;48.588;9.250;2022-07-09T01:03:56;15.50;99.90
18041;DHT22;9145;48.588;9.250;2022-07-09T01:06:23;15.40;99.90
18041;DHT22;9145;48.588;9.250;2022-07-09T01:08:50;15.40;99.90
18041;DHT22;9145;48.588;9.250;2022-07-09T01:11:17;15.30;99.90
18041;DHT22;9145;48.588;9.250;2022-07-09T01:13:44;15.30;99.90
18041;DHT22;9145;48.588;9.250;2022-07-09T01:16:14;15.40;99.90
18041;DHT22;9145;48.588;9.250;2022-07-09T01:18:45;15.40;99.90
18041;DHT22;9145;48.588;9.250;2022-07-09T01:21:13;15.40;99.90
18041;DHT22;9145;48.588;9.250;2022-07-09T01:23:41;15.40;99.90
18041;DHT22;9145;48.588;9.250;2022-07-09T01:26:08;15.40;99.90
18041;DHT22;9145;48.588;9.250;2022-07-09T01:28:35;15.40;99.90
18041;DHT22;9145;48.588;9.250;2022-07-09T01:31:02;15.30;99.90
18041;DHT22;9145;48.588;9.250;2022-07-09T01:33:28;15.30;99.90
18041;DHT22;9145;48.588;9.250;2022-07-09T01:35:57;15.20;99.90
18041;DHT22;9145;48.588;9.250;2022-07-09T01:38:25;15.20;99.90
18041;DHT22;9145;48.588;9.250;2022-07-09T01:40:52;15.10;99.90
18041;DHT22;9145;48.588;9.250;2022-07-09T01:43:19;15.00;99.90
18041;DHT22;9145;48.588;9.250;2022-07-09T01:45:46;14.90;99.90
18041;DHT22;9145;48.588;9.250;2022-07-09T01:48:13;14.70;99.90
18041;DHT22;9145;48.588;9.250;2022-07-09T01:50:40;14.70;99.90
18041;DHT22;9145;48.588;9.250;2022-07-09T01:53:07;14.70;99.90
18041;DHT22;9145;48.588;9.250;2022-07-09T01:55:35;14.70;99.90
18041;DHT22;9145;48.588;9.250;2022-07-09T01:58:02;14.60;99.90
18041;DHT22;9145;48.588;9.250;2022-07-09T02:00:30;14.60;99.90
18041;DHT22;9145;48.588;9.250;2022-07-09T02:02:57;14.60;99.90
18041;DHT22;9145;48.588;9.250;2022-07-09T02:05:24;14.60;99.90
18041;DHT22;9145;48.588;9.250;2022-07-09T02:07:51;14.70;99.90
18041;DHT22;9145;48.588;9.250;2022-07-09T02:10:18;14.70;99.90
18041;DHT22;9145;48.588;9.250;2022-07-09T02:12:46;14.70;99.90
18041;DHT22;9145;48.588;9.250;2022-07-09T02:15:13;14.70;99.90
18041;DHT22;9145;48.588;9.250;2022-07-09T02:17:40;14.70;99.90
18041;DHT22;9145;48.588;9.250;2022-07-09T02:20:07;14.70;99.90
18041;DHT22;9145;48.588;9.250;2022-07-09T02:22:35;14.70;99.90
18041;DHT22;9145;48.588;9.250;2022-07-09T02:25:02;14.60;99.90
18041;DHT22;9145;48.588;9.250;2022-07-09T02:27:29;14.50;99.90
18041;DHT22;9145;48.588;9.250;2022-07-09T02:29:57;14.50;99.90
18041;DHT22;9145;48.588;9.250;2022-07-09T02:32:24;14.40;99.90
18041;DHT22;9145;48.588;9.250;2022-07-09T02:34:51;14.50;99.90
18041;DHT22;9145;48.588;9.250;2022-07-09T02:37:18;14.40;99.90
18041;DHT22;9145;48.588;9.250;2022-07-09T02:39:45;14.40;99.90
18041;DHT22;9145;48.588;9.250;2022-07-09T02:42:12;14.40;99.90
18041;DHT22;9145;48.588;9.250;2022-07-09T02:44:38;14.30;99.90
18041;DHT22;9145;48.588;9.250;2022-07-09T02:47:07;14.30;99.90
18041;DHT22;9145;48.588;9.250;2022-07-09T02:49:33;14.30;99.90
18041;DHT22;9145;48.588;9.250;2022-07-09T02:52:00;14.20;99.90
18041;DHT22;9145;48.588;9.250;2022-07-09T02:54:27;14.20;99.90
18041;DHT22;9145;48.588;9.250;2022-07-09T02:56:54;14.20;99.90
18041;DHT22;9145;48.588;9.250;2022-07-09T02:59:21;14.10;99.90
18041;DHT22;9145;48.588;9.250;2022-07-09T03:01:48;14.10;99.90
18041;DHT22;9145;48.588;9.250;2022-07-09T03:04:16;14.20;99.90
18041;DHT22;9145;48.588;9.250;2022-07-09T03:06:43;14.10;99.90
18041;DHT22;9145;48.588;9.250;2022-07-09T03:09:10;14.00;99.90
18041;DHT22;9145;48.588;9.250;2022-07-09T03:11:37;14.10;99.90
18041;DHT22;9145;48.588;9.250;2022-07-09T03:14:03;14.00;99.90
18041;DHT22;9145;48.588;9.250;2022-07-09T03:16:30;14.00;99.90
18041;DHT22;9145;48.588;9.250;2022-07-09T03:18:57;14.00;99.90
18041;DHT22;9145;48.588;9.250;2022-07-09T03:21:25;13.90;99.90
18041;DHT22;9145;48.588;9.250;2022-07-09T03:23:52;13.90;99.90
18041;DHT22;9145;48.588;9.250;2022-07-09T03:26:19;13.90;99.90
18041;DHT22;9145;48.588;9.250;2022-07-09T03:28:46;13.90;99.90
18041;DHT22;9145;48.588;9.250;2022-07-09T03:31:12;13.90;99.90
18041;DHT22;9145;48.588;9.250;2022-07-09T03:33:40;14.00;99.90
18041;DHT22;9145;48.588;9.250;2022-07-09T03:36:07;14.00;99.90
18041;DHT22;9145;48.588;9.250;2022-07-09T03:38:36;13.90;99.90
18041;DHT22;9145;48.588;9.250;2022-07-09T03:41:03;13.90;99.90
18041;DHT22;9145;48.588;9.250;2022-07-09T03:43:30;13.90;99.90
18041;DHT22;9145;48.588;9.250;2022-07-09T03:45:57;13.80;99.90
18041;DHT22;9145;48.588;9.250;2022-07-09T03:48:24;13.80;99.90
18041;DHT22;9145;48.588;9.250;2022-07-09T03:50:51;13.80;99.90
18041;DHT22;9145;48.588;9.250;2022-07-09T03:53:17;13.80;99.90
18041;DHT22;9145;48.588;9.250;2022-07-09T03:55:46;13.80;99.90
18041;DHT22;9145;48.588;9.250;2022-07-09T03:58:13;13.80;99.90
18041;DHT22;9145;48.588;9.250;2022-07-09T04:00:40;13.70;99.90
18041;DHT22;9145;48.588;9.250;2022-07-09T04:03:06;13.70;99.90
18041;DHT22;9145;48.588;9.250;2022-07-09T04:05:33;13.60;99.90
18041;DHT22;9145;48.588;9.250;2022-07-09T04:08:00;13.50;99.90
18041;DHT22;9145;48.588;9.250;2022-07-09T04:10:27;13.50;99.90
18041;DHT22;9145;48.588;9.250;2022-07-09T04:12:55;13.40;99.90
18041;DHT22;9145;48.588;9.250;2022-07-09T04:15:22;13.40;99.90
18041;DHT22;9145;48.588;9.250;2022-07-09T04:17:49;13.40;99.90
18041;DHT22;9145;48.588;9.250;2022-07-09T04:20:16;13.40;99.90
18041;DHT22;9145;48.588;9.250;2022-07-09T04:22:42;13.50;99.90
18041;DHT22;9145;48.588;9.250;2022-07-09T04:25:09;13.50;99.90
18041;DHT22;9145;48.588;9.250;2022-07-09T04:27:36;13.40;99.90
18041;DHT22;9145;48.588;9.250;2022-07-09T04:30:07;13.40;99.90
18041;DHT22;9145;48.588;9.250;2022-07-09T04:32:35;13.30;99.90
18041;DHT22;9145;48.588;9.250;2022-07-09T04:35:02;13.30;99.90
18041;DHT22;9145;48.588;9.250;2022-07-09T04:37:29;13.30;99.90
18041;DHT22;9145;48.588;9.250;2022-07-09T04:39:56;13.10;99.90
18041;DHT22;9145;48.588;9.250;2022-07-09T04:42:23;13.20;99.90
18041;DHT22;9145;48.588;9.250;2022-07-09T04:44:49;13.20;99.90
18041;DHT22;9145;48.588;9.250;2022-07-09T04:47:18;13.10;99.90
18041;DHT22;9145;48.588;9.250;2022-07-09T04:49:44;13.20;99.90
18041;DHT22;9145;48.588;9.250;2022-07-09T04:52:11;13.30;99.90
18041;DHT22;9145;48.588;9.250;2022-07-09T04:54:42;13.40;99.90
18041;DHT22;9145;48.588;9.250;2022-07-09T04:57:08;13.40;99.90
18041;DHT22;9145;48.588;9.250;2022-07-09T04:59:35;13.40;99.90
18041;DHT22;9145;48.588;9.250;2022-07-09T05:02:02;13.50;99.90
18041;DHT22;9145;48.588;9.250;2022-07-09T05:04:31;13.40;99.90
18041;DHT22;9145;48.588;9.250;2022-07-09T05:06:58;13.40;99.90
18041;DHT22;9145;48.588;9.250;2022-07-09T05:09:24;13.40;99.90
18041;DHT22;9145;48.588;9.250;2022-07-09T05:11:51;13.50;99.90
18041;DHT22;9145;48.588;9.250;2022-07-09T05:14:19;13.60;99.90
18041;DHT22;9145;48.588;9.250;2022-07-09T05:16:47;13.60;99.90
18041;DHT22;9145;48.588;9.250;2022-07-09T05:19:14;13.60;99.90
18041;DHT22;9145;48.588;9.250;2022-07-09T05:21:42;13.60;99.90
18041;DHT22;9145;48.588;9.250;2022-07-09T05:24:09;13.70;99.90
18041;DHT22;9145;48.588;9.250;2022-07-09T05:26:36;13.70;99.90
18041;DHT22;9145;48.588;9.250;2022-07-09T05:29:03;13.70;99.90
18041;DHT22;9145;48.588;9.250;2022-07-09T05:31:30;13.70;99.90
18041;DHT22;9145;48.588;9.250;2022-07-09T05:33:57;13.80;99.90
18041;DHT22;9145;48.588;9.250;2022-07-09T05:36:25;13.80;99.90
18041;DHT22;9145;48.588;9.250;2022-07-09T05:38:55;13.80;99.90
18041;DHT22;9145;48.588;9.250;2022-07-09T05:41:22;13.80;99.90
18041;DHT22;9145;48.588;9.250;2022-07-09T05:43:50;13.80;99.90
18041;DHT22;9145;48.588;9.250;2022-07-09T05:46:17;13.90;99.90
18041;DHT22;9145;48.588;9.250;2022-07-09T05:48:44;14.10;99.90
18041;DHT22;9145;48.588;9.250;2022-07-09T05:51:10;14.20;99.90
18041;DHT22;9145;48.588;9.250;2022-07-09T05:53:37;14.20;99.90
18041;DHT22;9145;48.588;9.250;2022-07-09T05:56:06;14.30;99.90
18041;DHT22;9145;48.588;9.250;2022-07-09T05:58:34;14.30;99.90
18041;DHT22;9145;48.588;9.250;2022-07-09T06:01:01;14.30;99.90
18041;DHT22;9145;48.588;9.250;2022-07-09T06:03:28;14.40;99.90
18041;DHT22;9145;48.588;9.250;2022-07-09T06:05:55;14.20;99.90
18041;DHT22;9145;48.588;9.250;2022-07-09T06:08:22;14.10;99.90
18041;DHT22;9145;48.588;9.250;2022-07-09T06:10:48;14.20;99.90
18041;DHT22;9145;48.588;9.250;2022-07-09T06:13:17;14.30;99.90
18041;DHT22;9145;48.588;9.250;2022-07-09T06:15:44;14.30;99.90
18041;DHT22;9145;48.588;9.250;2022-07-09T06:18:11;14.30;99.90
18041;DHT22;9145;48.588;9.250;2022-07-09T06:20:38;14.40;99.90
18041;DHT22;9145;48.588;9.250;2022-07-09T06:23:04;14.50;99.90
18041;DHT22;9145;48.588;9.250;2022-07-09T06:25:31;14.50;99.90
18041;DHT22;9145;48.588;9.250;2022-07-09T06:27:58;14.60;99.90
18041;DHT22;9145;48.588;9.250;2022-07-09T06:30:26;14.70;99.90
18041;DHT22;9145;48.588;9.250;2022-07-09T06:32:53;14.80;99.90
18041;DHT22;9145;48.588;9.250;2022-07-09T06:35:20;14.90;99.90
18041;DHT22;9145;48.588;9.250;2022-07-09T06:37:47;15.00;99.90
18041;DHT22;9145;48.588;9.250;2022-07-09T06:40:14;15.20;99.90
18041;DHT22;9145;48.588;9.250;2022-07-09T06:42:41;15.30;99.90
18041;DHT22;9145;48.588;9.250;2022-07-09T06:45:09;15.40;99.90
18041;DHT22;9145;48.588;9.250;2022-07-09T06:47:37;15.50;99.90
18041;DHT22;9145;48.588;9.250;2022-07-09T06:50:04;15.60;99.90
18041;DHT22;9145;48.588;9.250;2022-07-09T06:52:31;15.70;99.90
18041;DHT22;9145;48.588;9.250;2022-07-09T06:54:58;15.90;99.90
18041;DHT22;9145;48.588;9.250;2022-07-09T06:57:25;16.00;99.90
18041;DHT22;9145;48.588;9.250;2022-07-09T06:59:52;16.20;99.90
18041;DHT22;9145;48.588;9.250;2022-07-09T07:02:19;16.40;99.90
18041;DHT22;9145;48.588;9.250;2022-07-09T07:04:47;16.50;99.90
18041;DHT22;9145;48.588;9.250;2022-07-09T07:07:14;16.60;99.90
18041;DHT22;9145;48.588;9.250;2022-07-09T07:09:41;16.60;99.90
18041;DHT22;9145;48.588;9.250;2022-07-09T07:12:08;16.60;99.90
18041;DHT22;9145;48.588;9.250;2022-07-09T07:14:35;16.70;99.90
18041;DHT22;9145;48.588;9.250;2022-07-09T07:17:02;16.80;99.90
18041;DHT22;9145;48.588;9.250;2022-07-09T07:19:29;16.80;99.90
18041;DHT22;9145;48.588;9.250;2022-07-09T07:21:57;17.00;99.90
18041;DHT22;9145;48.588;9.250;2022-07-09T07:24:24;17.20;99.90
18041;DHT22;9145;48.588;9.250;2022-07-09T07:26:51;17.20;99.90
18041;DHT22;9145;48.588;9.250;2022-07-09T07:29:18;17.30;99.90
18041;DHT22;9145;48.588;9.250;2022-07-09T07:31:45;17.50;99.90
18041;DHT22;9145;48.588;9.250;2022-07-09T07:34:12;17.60;99.90
18041;DHT22;9145;48.588;9.250;2022-07-09T07:36:39;17.70;99.90
18041;DHT22;9145;48.588;9.250;2022-07-09T07:39:07;17.80;99.90
18041;DHT22;9145;48.588;9.250;2022-07-09T07:41:34;17.80;99.90
18041;DHT22;9145;48.588;9.250;2022-07-09T07:44:01;18.00;99.90
18041;DHT22;9145;48.588;9.250;2022-07-09T07:46:28;18.20;99.90
18041;DHT22;9145;48.588;9.250;2022-07-09T07:48:55;18.30;99.90
18041;DHT22;9145;48.588;9.250;2022-07-09T07:51:21;18.40;99.90
18041;DHT22;9145;48.588;9.250;2022-07-09T07:53:50;18.50;99.90
18041;DHT22;9145;48.588;9.250;2022-07-09T07:56:18;18.60;99.90
18041;DHT22;9145;48.588;9.250;2022-07-09T07:58:45;18.70;99.90
18041;DHT22;9145;48.588;9.250;2022-07-09T08:01:12;18.60;99.90
18041;DHT22;9145;48.588;9.250;2022-07-09T08:03:38;18.60;99.90
18041;DHT22;9145;48.588;9.250;2022-07-09T08:06:05;18.70;99.90
18041;DHT22;9145;48.588;9.250;2022-07-09T08:08:33;18.60;99.90
18041;DHT22;9145;48.588;9.250;2022-07-09T08:11:00;18.70;99.90
18041;DHT22;9145;48.588;9.250;2022-07-09T08:13:29;18.80;99.90
18041;DHT22;9145;48.588;9.250;2022-07-09T08:15:56;18.90;99.90
18041;DHT22;9145;48.588;9.250;2022-07-09T08:18:23;18.90;99.90
18041;DHT22;9145;48.588;9.250;2022-07-09T08:20:50;19.00;99.90
18041;DHT22;9145;48.588;9.250;2022-07-09T08:23:17;19.10;99.90
18041;DHT22;9145;48.588;9.250;2022-07-09T08:25:44;19.30;99.90
18041;DHT22;9145;48.588;9.250;2022-07-09T08:28:11;19.50;99.90
18041;DHT22;9145;48.588;9.250;2022-07-09T08:30:39;19.70;99.90
18041;DHT22;9145;48.588;9.250;2022-07-09T08:33:06;19.90;99.90
18041;DHT22;9145;48.588;9.250;2022-07-09T08:35:33;20.10;99.90
18041;DHT22;9145;48.588;9.250;2022-07-09T08:38:00;20.30;99.90
18041;DHT22;9145;48.588;9.250;2022-07-09T08:40:27;20.60;99.90
18041;DHT22;9145;48.588;9.250;2022-07-09T08:42:55;20.80;99.90
18041;DHT22;9145;48.588;9.250;2022-07-09T08:45:24;20.80;99.90
18041;DHT22;9145;48.588;9.250;2022-07-09T08:47:54;20.90;99.80
18041;DHT22;9145;48.588;9.250;2022-07-09T08:50:21;21.00;99.70
18041;DHT22;9145;48.588;9.250;2022-07-09T08:52:49;21.20;99.90
18041;DHT22;9145;48.588;9.250;2022-07-09T08:55:17;21.30;99.50
18041;DHT22;9145;48.588;9.250;2022-07-09T08:57:45;21.30;99.90
18041;DHT22;9145;48.588;9.250;2022-07-09T09:00:12;21.50;99.00
18041;DHT22;9145;48.588;9.250;2022-07-09T09:02:39;21.80;99.90
18041;DHT22;9145;48.588;9.250;2022-07-09T09:05:10;21.90;98.40
18041;DHT22;9145;48.588;9.250;2022-07-09T09:07:37;22.10;97.60
18041;DHT22;9145;48.588;9.250;2022-07-09T09:10:05;22.40;99.00
18041;DHT22;9145;48.588;9.250;2022-07-09T09:12:32;22.60;98.90
18041;DHT22;9145;48.588;9.250;2022-07-09T09:14:59;22.70;98.60
18041;DHT22;9145;48.588;9.250;2022-07-09T09:17:25;22.80;97.90
18041;DHT22;9145;48.588;9.250;2022-07-09T09:19:52;23.00;97.80
18041;DHT22;9145;48.588;9.250;2022-07-09T09:22:21;23.10;97.70
18041;DHT22;9145;48.588;9.250;2022-07-09T09:24:51;23.30;98.50
18041;DHT22;9145;48.588;9.250;2022-07-09T09:27:27;23.20;98.40
18041;DHT22;9145;48.588;9.250;2022-07-09T09:29:57;23.10;98.20
18041;DHT22;9145;48.588;9.250;2022-07-09T09:32:25;23.30;98.50
18041;DHT22;9145;48.588;9.250;2022-07-09T09:34:52;23.30;97.00
18041;DHT22;9145;48.588;9.250;2022-07-09T09:37:28;23.30;98.50
18041;DHT22;9145;48.588;9.250;2022-07-09T09:39:55;23.30;97.70
18041;DHT22;9145;48.588;9.250;2022-07-09T09:42:24;23.40;98.50
18041;DHT22;9145;48.588;9.250;2022-07-09T09:44:51;23.40;98.80
18041;DHT22;9145;48.588;9.250;2022-07-09T09:47:20;23.50;97.80
18041;DHT22;9145;48.588;9.250;2022-07-09T09:49:50;23.50;97.50
18041;DHT22;9145;48.588;9.250;2022-07-09T09:52:19;23.60;97.40
18041;DHT22;9145;48.588;9.250;2022-07-09T09:54:48;23.90;97.30
18041;DHT22;9145;48.588;9.250;2022-07-09T09:57:16;23.80;96.50
18041;DHT22;9145;48.588;9.250;2022-07-09T09:59:44;23.60;95.50
18041;DHT22;9145;48.588;9.250;2022-07-09T10:02:12;23.70;95.80
18041;DHT22;9145;48.588;9.250;2022-07-09T10:04:40;23.70;96.70
18041;DHT22;9145;48.588;9.250;2022-07-09T10:07:08;24.00;95.60
18041;DHT22;9145;48.588;9.250;2022-07-09T10:09:35;24.30;96.50
18041;DHT22;9145;48.588;9.250;2022-07-09T10:12:05;24.40;95.50
18041;DHT22;9145;48.588;9.250;2022-07-09T10:14:34;24.60;95.90
18041;DHT22;9145;48.588;9.250;2022-07-09T10:17:11;25.00;95.80
18041;DHT22;9145;48.588;9.250;2022-07-09T10:19:49;25.10;94.90
18041;DHT22;9145;48.588;9.250;2022-07-09T10:22:16;25.20;96.10
18041;DHT22;9145;48.588;9.250;2022-07-09T10:24:45;25.40;95.00
18041;DHT22;9145;48.588;9.250;2022-07-09T10:27:14;25.60;93.60
18041;DHT22;9145;48.588;9.250;2022-07-09T10:29:53;25.60;94.20
18041;DHT22;9145;48.588;9.250;2022-07-09T10:32:24;26.00;94.90
18041;DHT22;9145;48.588;9.250;2022-07-09T10:34:58;26.50;93.60
18041;DHT22;9145;48.588;9.250;2022-07-09T10:37:32;26.70;91.70
18041;DHT22;9145;48.588;9.250;2022-07-09T10:40:13;26.90;92.50
18041;DHT22;9145;48.588;9.250;2022-07-09T10:42:42;27.00;90.90
18041;DHT22;9145;48.588;9.250;2022-07-09T10:45:23;26.90;90.80
18041;DHT22;9145;48.588;9.250;2022-07-09T10:47:53;26.60;91.00
18041;DHT22;9145;48.588;9.250;2022-07-09T10:50:20;26.60;91.70
18041;DHT22;9145;48.588;9.250;2022-07-09T10:52:47;26.30;92.90
18041;DHT22;9145;48.588;9.250;2022-07-09T10:55:16;26.30;92.90
18041;DHT22;9145;48.588;9.250;2022-07-09T10:57:45;26.60;93.90
18041;DHT22;9145;48.588;9.250;2022-07-09T11:00:14;27.10;92.50
18041;DHT22;9145;48.588;9.250;2022-07-09T11:02:54;27.60;93.10
18041;DHT22;9145;48.588;9.250;2022-07-09T11:05:22;27.80;91.30
18041;DHT22;9145;48.588;9.250;2022-07-09T11:08:01;27.70;90.30
18041;DHT22;9145;48.588;9.250;2022-07-09T11:10:29;27.30;90.90
18041;DHT22;9145;48.588;9.250;2022-07-09T11:12:58;26.90;94.00
18041;DHT22;9145;48.588;9.250;2022-07-09T11:15:27;26.70;93.80
18041;DHT22;9145;48.588;9.250;2022-07-09T11:17:55;26.40;92.00
18041;DHT22;9145;48.588;9.250;2022-07-09T11:20:23;26.00;92.50
18041;DHT22;9145;48.588;9.250;2022-07-09T11:22:50;26.00;92.10
18041;DHT22;9145;48.588;9.250;2022-07-09T11:25:17;26.20;94.30
18041;DHT22;9145;48.588;9.250;2022-07-09T11:27:44;26.50;92.90
18041;DHT22;9145;48.588;9.250;2022-07-09T11:30:13;27.10;92.00
18041;DHT22;9145;48.588;9.250;2022-07-09T11:32:41;27.40;91.20
18041;DHT22;9145;48.588;9.250;2022-07-09T11:35:08;27.50;91.00
18041;DHT22;9145;48.588;9.250;2022-07-09T11:37:35;27.70;92.70
18041;DHT22;9145;48.588;9.250;2022-07-09T11:40:03;27.90;91.30
18041;DHT22;9145;48.588;9.250;2022-07-09T11:42:30;27.80;88.70
18041;DHT22;9145;48.588;9.250;2022-07-09T11:44:58;27.40;90.80
18041;DHT22;9145;48.588;9.250;2022-07-09T11:47:34;27.30;91.10
18041;DHT22;9145;48.588;9.250;2022-07-09T11:50:06;27.50;92.80
18041;DHT22;9145;48.588;9.250;2022-07-09T11:52:33;27.00;91.90
18041;DHT22;9145;48.588;9.250;2022-07-09T11:55:01;26.60;91.40
18041;DHT22;9145;48.588;9.250;2022-07-09T11:57:30;26.50;92.50
18041;DHT22;9145;48.588;9.250;2022-07-09T11:59:57;26.20;93.10
18041;DHT22;9145;48.588;9.250;2022-07-09T12:02:31;26.10;91.40
18041;DHT22;9145;48.588;9.250;2022-07-09T12:05:00;26.10;93.20
18041;DHT22;9145;48.588;9.250;2022-07-09T12:07:29;26.30;92.40
18041;DHT22;9145;48.588;9.250;2022-07-09T12:10:00;26.40;92.00
18041;DHT22;9145;48.588;9.250;2022-07-09T12:12:28;26.70;92.00
18041;DHT22;9145;48.588;9.250;2022-07-09T12:14:55;26.80;90.60
18041;DHT22;9145;48.588;9.250;2022-07-09T12:17:23;26.80;92.00
18041;DHT22;9145;48.588;9.250;2022-07-09T12:19:50;26.60;91.00
18041;DHT22;9145;48.588;9.250;2022-07-09T12:22:18;26.50;91.30
18041;DHT22;9145;48.588;9.250;2022-07-09T12:24:45;26.50;91.00
18041;DHT22;9145;48.588;9.250;2022-07-09T12:27:13;26.80;92.20
18041;DHT22;9145;48.588;9.250;2022-07-09T12:29:40;27.10;91.00
18041;DHT22;9145;48.588;9.250;2022-07-09T12:32:07;27.20;91.60
18041;DHT22;9145;48.588;9.250;2022-07-09T12:34:34;27.00;90.80
18041;DHT22;9145;48.588;9.250;2022-07-09T12:37:01;26.80;86.00
18041;DHT22;9145;48.588;9.250;2022-07-09T12:39:29;26.70;89.70
18041;DHT22;9145;48.588;9.250;2022-07-09T12:41:56;26.70;90.70
18041;DHT22;9145;48.588;9.250;2022-07-09T12:44:23;26.90;91.70
18041;DHT22;9145;48.588;9.250;2022-07-09T12:46:50;27.20;90.00
18041;DHT22;9145;48.588;9.250;2022-07-09T12:49:17;27.30;91.20
18041;DHT22;9145;48.588;9.250;2022-07-09T12:51:44;27.20;88.10
18041;DHT22;9145;48.588;9.250;2022-07-09T12:54:11;27.30;90.80
18041;DHT22;9145;48.588;9.250;2022-07-09T12:56:39;27.50;90.10
18041;DHT22;9145;48.588;9.250;2022-07-09T12:59:06;27.60;90.10
18041;DHT22;9145;48.588;9.250;2022-07-09T13:01:33;27.50;89.20
18041;DHT22;9145;48.588;9.250;2022-07-09T13:04:00;27.30;90.20
18041;DHT22;9145;48.588;9.250;2022-07-09T13:06:27;27.10;89.60
18041;DHT22;9145;48.588;9.250;2022-07-09T13:09:02;27.00;90.20
18041;DHT22;9145;48.588;9.250;2022-07-09T13:11:29;26.90;90.70
18041;DHT22;9145;48.588;9.250;2022-07-09T13:13:58;26.90;90.70
18041;DHT22;9145;48.588;9.250;2022-07-09T13:16:25;27.10;93.60
18041;DHT22;9145;48.588;9.250;2022-07-09T13:18:55;27.30;87.60
18041;DHT22;9145;48.588;9.250;2022-07-09T13:21:22;27.70;89.50
18041;DHT22;9145;48.588;9.250;2022-07-09T13:23:49;27.90;88.90
18041;DHT22;9145;48.588;9.250;2022-07-09T13:26:17;27.40;89.00
18041;DHT22;9145;48.588;9.250;2022-07-09T13:28:44;27.20;89.60
18041;DHT22;9145;48.588;9.250;2022-07-09T13:31:12;27.20;90.40
18041;DHT22;9145;48.588;9.250;2022-07-09T13:33:39;27.00;90.60
18041;DHT22;9145;48.588;9.250;2022-07-09T13:36:06;26.80;90.20
18041;DHT22;9145;48.588;9.250;2022-07-09T13:38:34;26.70;90.70
18041;DHT22;9145;48.588;9.250;2022-07-09T13:41:01;26.80;90.70
18041;DHT22;9145;48.588;9.250;2022-07-09T13:43:28;26.90;90.00
18041;DHT22;9145;48.588;9.250;2022-07-09T13:45:56;27.20;89.30
18041;DHT22;9145;48.588;9.250;2022-07-09T13:48:25;27.80;90.10
18041;DHT22;9145;48.588;9.250;2022-07-09T13:50:52;28.00;92.80
18041;DHT22;9145;48.588;9.250;2022-07-09T13:53:19;28.10;89.30
18041;DHT22;9145;48.588;9.250;2022-07-09T13:55:47;28.20;90.90
18041;DHT22;9145;48.588;9.250;2022-07-09T13:58:14;28.40;87.60
18041;DHT22;9145;48.588;9.250;2022-07-09T14:00:40;28.70;90.10
18041;DHT22;9145;48.588;9.250;2022-07-09T14:03:07;28.80;86.30
18041;DHT22;9145;48.588;9.250;2022-07-09T14:05:36;28.90;84.70
18041;DHT22;9145;48.588;9.250;2022-07-09T14:08:04;28.70;86.00
18041;DHT22;9145;48.588;9.250;2022-07-09T14:10:31;28.60;84.10
18041;DHT22;9145;48.588;9.250;2022-07-09T14:12:58;28.80;83.40
18041;DHT22;9145;48.588;9.250;2022-07-09T14:15:25;28.80;84.80
18041;DHT22;9145;48.588;9.250;2022-07-09T14:17:52;28.40;85.60
18041;DHT22;9145;48.588;9.250;2022-07-09T14:20:18;27.90;86.60
18041;DHT22;9145;48.588;9.250;2022-07-09T14:22:48;27.80;86.60
18041;DHT22;9145;48.588;9.250;2022-07-09T14:25:15;27.90;90.30
18041;DHT22;9145;48.588;9.250;2022-07-09T14:27:42;27.90;91.30
18041;DHT22;9145;48.588;9.250;2022-07-09T14:30:10;27.80;87.40
18041;DHT22;9145;48.588;9.250;2022-07-09T14:32:37;27.70;90.30
18041;DHT22;9145;48.588;9.250;2022-07-09T14:35:04;27.60;90.10
18041;DHT22;9145;48.588;9.250;2022-07-09T14:37:31;27.60;89.60
18041;DHT22;9145;48.588;9.250;2022-07-09T14:39:59;28.00;89.60
18041;DHT22;9145;48.588;9.250;2022-07-09T14:42:26;28.20;88.70
18041;DHT22;9145;48.588;9.250;2022-07-09T14:44:53;28.80;88.40
18041;DHT22;9145;48.588;9.250;2022-07-09T14:47:20;29.40;88.10
18041;DHT22;9145;48.588;9.250;2022-07-09T14:49:47;29.50;86.80
18041;DHT22;9145;48.588;9.250;2022-07-09T14:52:14;29.40;85.90
18041;DHT22;9145;48.588;9.250;2022-07-09T14:54:42;29.30;85.00
18041;DHT22;9145;48.588;9.250;2022-07-09T14:57:11;29.30;87.10
18041;DHT22;9145;48.588;9.250;2022-07-09T14:59:38;29.30;88.80
18041;DHT22;9145;48.588;9.250;2022-07-09T15:02:05;29.50;82.90
18041;DHT22;9145;48.588;9.250;2022-07-09T15:04:32;29.10;84.80
18041;DHT22;9145;48.588;9.250;2022-07-09T15:06:58;28.70;87.10
18041;DHT22;9145;48.588;9.250;2022-07-09T15:09:25;28.50;91.40
18041;DHT22;9145;48.588;9.250;2022-07-09T15:11:53;28.30;88.90
18041;DHT22;9145;48.588;9.250;2022-07-09T15:14:22;28.30;87.70
18041;DHT22;9145;48.588;9.250;2022-07-09T15:16:49;28.90;90.00
18041;DHT22;9145;48.588;9.250;2022-07-09T15:19:16;29.30;84.50
18041;DHT22;9145;48.588;9.250;2022-07-09T15:21:43;29.40;84.30
18041;DHT22;9145;48.588;9.250;2022-07-09T15:24:10;29.10;83.10
18041;DHT22;9145;48.588;9.250;2022-07-09T15:26:37;28.50;82.30
18041;DHT22;9145;48.588;9.250;2022-07-09T15:29:04;28.40;89.00
18041;DHT22;9145;48.588;9.250;2022-07-09T15:31:32;28.30;88.30
18041;DHT22;9145;48.588;9.250;2022-07-09T15:33:59;28.20;82.90
18041;DHT22;9145;48.588;9.250;2022-07-09T15:36:30;28.60;83.30
18041;DHT22;9145;48.588;9.250;2022-07-09T15:38:57;28.40;84.40
18041;DHT22;9145;48.588;9.250;2022-07-09T15:41:23;28.10;82.20
18041;DHT22;9145;48.588;9.250;2022-07-09T15:43:50;27.90;84.00
18041;DHT22;9145;48.588;9.250;2022-07-09T15:46:17;28.00;86.90